createdAt,value
2022-08-31T00:01:30.599Z,54.16
2022-08-31T00:04:03.120Z,53.77
2022-08-31T00:06:32.036Z,54.04
2022-08-31T00:09:00.628Z,53.90
2022-08-31T00:11:31.010Z,54.00
2022-08-31T00:14:01.348Z,54.20
2022-08-31T00:16:33.998Z,53.90
2022-08-31T00:19:03.358Z,54.38
2022-08-31T00:21:31.349Z,53.85
2022-08-31T00:23:59.490Z,54.67
2022-08-31T00:26:29.010Z,54.25
2022-08-31T00:28:57.254Z,53.96
2022-08-31T00:31:25.282Z,54.56
2022-08-31T00:33:53.294Z,54.62
2022-08-31T00:36:23.581Z,54.66
2022-08-31T00:38:51.982Z,54.86
2022-08-31T00:41:22.733Z,54.79
2022-08-31T00:43:55.323Z,54.61
2022-08-31T00:46:26.562Z,55.25
2022-08-31T00:49:00.834Z,55.00
2022-08-31T00:51:31.089Z,55.02
2022-08-31T00:54:00.318Z,56.15
2022-08-31T00:56:31.364Z,55.13
2022-08-31T00:59:01.167Z,54.80
2022-08-31T01:01:30.786Z,55.19
2022-08-31T01:03:59.327Z,55.34
2022-08-31T01:06:28.358Z,55.24
2022-08-31T01:08:58.234Z,55.88
2022-08-31T01:11:26.777Z,55.38
2022-08-31T01:13:55.037Z,55.59
2022-08-31T01:16:29.376Z,55.97
2022-08-31T01:19:00.063Z,55.94
2022-08-31T01:21:31.016Z,55.70
2022-08-31T01:24:03.345Z,55.75
2022-08-31T01:26:34.234Z,55.93
2022-08-31T01:29:06.234Z,56.50
2022-08-31T01:31:37.296Z,56.07
2022-08-31T01:34:05.701Z,56.49
2022-08-31T01:36:36.782Z,57.09
2022-08-31T01:39:07.036Z,57.36
2022-08-31T01:41:35.128Z,57.24
2022-08-31T01:44:03.638Z,57.02
2022-08-31T01:46:32.574Z,56.91
2022-08-31T01:49:01.764Z,57.37
2022-08-31T01:51:29.848Z,56.95
2022-08-31T01:53:58.054Z,57.20
2022-08-31T01:56:31.341Z,57.25
2022-08-31T01:59:05.099Z,56.67
2022-08-31T02:01:54.641Z,56.26
2022-08-31T02:04:25.906Z,56.89
2022-08-31T02:07:00.622Z,57.02
2022-08-31T02:09:29.961Z,57.00
2022-08-31T02:12:01.038Z,57.22
2022-08-31T02:14:29.274Z,57.83
2022-08-31T02:16:57.526Z,57.61
2022-08-31T02:19:25.391Z,57.99
2022-08-31T02:21:57.007Z,58.62
2022-08-31T02:24:24.922Z,59.12
2022-08-31T02:26:53.981Z,58.92
2022-08-31T02:29:23.914Z,58.29
2022-08-31T02:31:52.305Z,58.44
2022-08-31T02:34:20.298Z,58.62
2022-08-31T02:36:48.778Z,58.78
2022-08-31T02:39:17.458Z,58.57
2022-08-31T02:41:46.085Z,58.68
2022-08-31T02:44:14.017Z,58.65
2022-08-31T02:46:43.833Z,58.04
2022-08-31T02:49:24.583Z,58.45
2022-08-31T02:51:55.307Z,58.68
2022-08-31T02:54:23.683Z,59.11
2022-08-31T02:56:52.990Z,59.18
2022-08-31T02:59:21.137Z,59.73
2022-08-31T03:01:52.852Z,60.35
2022-08-31T03:04:21.044Z,60.17
2022-08-31T03:06:49.075Z,60.21
2022-08-31T03:09:17.258Z,60.32
2022-08-31T03:11:45.386Z,59.98
2022-08-31T03:14:13.352Z,59.74
2022-08-31T03:16:41.623Z,59.64
2022-08-31T03:19:11.360Z,59.63
2022-08-31T03:21:39.323Z,59.02
2022-08-31T03:24:07.968Z,60.00
2022-08-31T03:26:36.182Z,59.97
2022-08-31T03:29:05.502Z,59.52
2022-08-31T03:31:54.646Z,59.65
2022-08-31T03:34:24.507Z,60.01
2022-08-31T03:36:52.555Z,60.59
2022-08-31T03:39:21.017Z,61.04
2022-08-31T03:41:49.313Z,60.74
2022-08-31T03:44:23.767Z,60.65
2022-08-31T03:46:55.256Z,60.44
2022-08-31T03:49:26.781Z,60.98
2022-08-31T03:52:16.350Z,60.32
2022-08-31T03:54:48.241Z,60.29
2022-08-31T03:57:16.440Z,59.79
2022-08-31T03:59:44.362Z,59.89
2022-08-31T04:02:22.075Z,60.03
2022-08-31T04:05:13.289Z,60.05
2022-08-31T04:08:00.531Z,59.97
2022-08-31T04:10:48.592Z,60.56
2022-08-31T04:13:29.887Z,60.24
2022-08-31T04:16:19.931Z,60.29
2022-08-31T04:19:07.976Z,60.22
2022-08-31T04:21:44.152Z,60.56
2022-08-31T04:24:14.205Z,60.04
2022-08-31T04:26:43.555Z,60.40
2022-08-31T04:29:13.656Z,60.36
2022-08-31T04:31:42.822Z,60.38
2022-08-31T04:34:11.026Z,60.86
2022-08-31T04:36:39.188Z,60.27
2022-08-31T04:39:09.775Z,60.57
2022-08-31T04:41:39.955Z,60.36
2022-08-31T04:44:12.331Z,59.57
2022-08-31T04:46:43.314Z,59.31
2022-08-31T04:49:14.696Z,59.86
2022-08-31T04:51:43.157Z,60.44
2022-08-31T04:54:14.942Z,60.38
2022-08-31T04:56:45.637Z,59.50
2022-08-31T04:59:26.237Z,60.66
2022-08-31T05:02:16.685Z,60.58
2022-08-31T05:04:58.146Z,59.64
2022-08-31T05:07:26.604Z,60.25
2022-08-31T05:09:58.313Z,60.29
2022-08-31T05:12:26.297Z,60.07
2022-08-31T05:14:54.274Z,60.06
2022-08-31T05:17:25.493Z,60.11
2022-08-31T05:19:54.177Z,60.66
2022-08-31T05:22:22.367Z,60.19
2022-08-31T05:24:53.217Z,60.50
2022-08-31T05:27:22.488Z,60.43
2022-08-31T05:29:50.637Z,60.37
2022-08-31T05:32:53.958Z,59.85
2022-08-31T05:35:21.906Z,59.61
2022-08-31T05:37:51.825Z,60.19
2022-08-31T05:40:21.203Z,59.85
2022-08-31T05:42:50.649Z,60.41
2022-08-31T05:45:18.869Z,59.72
2022-08-31T05:47:48.982Z,60.22
2022-08-31T05:50:18.552Z,61.02
2022-08-31T05:52:47.262Z,60.37
2022-08-31T05:55:15.566Z,60.91
2022-08-31T05:57:43.720Z,61.64
2022-08-31T06:00:13.998Z,60.97
2022-08-31T06:02:44.555Z,60.60
2022-08-31T06:05:15.139Z,60.90
2022-08-31T06:07:46.985Z,60.53
2022-08-31T06:10:17.147Z,61.15
2022-08-31T06:12:47.335Z,61.57
2022-08-31T06:15:21.094Z,61.58
2022-08-31T06:17:49.371Z,61.29
2022-08-31T06:20:18.382Z,60.25
2022-08-31T06:22:48.683Z,60.61
2022-08-31T06:25:33.837Z,61.13
2022-08-31T06:28:02.320Z,61.21
2022-08-31T06:30:32.803Z,61.25
2022-08-31T06:33:01.967Z,62.01
2022-08-31T06:35:40.155Z,61.45
2022-08-31T06:38:32.798Z,62.01
2022-08-31T06:41:22.659Z,61.13
2022-08-31T06:44:23.957Z,62.17
2022-08-31T06:47:13.616Z,61.44
2022-08-31T06:49:43.288Z,62.00
2022-08-31T06:52:11.302Z,62.10
2022-08-31T06:54:42.299Z,61.96
2022-08-31T06:57:29.412Z,61.71
2022-08-31T07:00:38.117Z,61.25
2022-08-31T07:03:24.347Z,62.34
2022-08-31T07:05:58.219Z,61.15
2022-08-31T07:08:26.398Z,61.73
2022-08-31T07:10:54.509Z,62.43
2022-08-31T07:13:22.536Z,61.55
2022-08-31T07:15:50.817Z,61.03
2022-08-31T07:18:18.859Z,61.70
2022-08-31T07:20:48.879Z,62.59
2022-08-31T07:23:17.988Z,62.78
2022-08-31T07:25:58.734Z,63.78
2022-08-31T07:28:29.050Z,64.34
2022-08-31T07:30:57.133Z,65.66
2022-08-31T07:33:25.127Z,66.55
2022-08-31T07:36:00.560Z,66.74
2022-08-31T07:38:54.132Z,68.43
2022-08-31T07:41:40.539Z,71.69
2022-08-31T07:44:10.033Z,75.33
2022-08-31T07:46:40.165Z,80.86
2022-08-31T07:49:13.870Z,82.34
2022-08-31T07:52:11.373Z,86.95
2022-08-31T07:55:07.966Z,93.92
2022-08-31T07:57:53.367Z,100.00
2022-08-31T08:00:23.519Z,100.00
2022-08-31T08:02:53.832Z,100.00
2022-08-31T08:05:32.519Z,100.00
2022-08-31T08:08:43.573Z,100.00
2022-08-31T08:11:22.023Z,100.00
2022-08-31T08:14:15.131Z,100.00
2022-08-31T08:17:10.293Z,100.00
2022-08-31T08:19:45.946Z,100.00
2022-08-31T08:22:26.128Z,100.00
2022-08-31T08:25:45.336Z,100.00
2022-08-31T08:31:18.224Z,100.00
2022-08-31T08:33:47.486Z,100.00
2022-08-31T08:36:18.333Z,100.00
2022-08-31T08:38:50.472Z,100.00
2022-08-31T08:41:23.042Z,100.00
2022-08-31T08:43:53.767Z,100.00
2022-08-31T08:47:38.016Z,100.00
2022-08-31T08:49:26.071Z,100.00
2022-08-31T08:51:59.384Z,100.00
2022-08-31T08:54:33.854Z,100.00
2022-08-31T08:57:14.376Z,100.00
2022-08-31T08:59:44.658Z,100.00
2022-08-31T09:02:20.020Z,100.00
2022-08-31T09:05:12.818Z,100.00
2022-08-31T09:08:10.532Z,100.00
2022-08-31T09:10:45.611Z,100.00
2022-08-31T09:13:25.629Z,100.00
2022-08-31T09:16:10.026Z,100.00
2022-08-31T09:18:46.762Z,100.00
2022-08-31T09:21:23.721Z,100.00
2022-08-31T09:24:01.574Z,100.00
2022-08-31T09:26:35.602Z,100.00
2022-08-31T09:29:24.717Z,100.00
2022-08-31T09:32:05.975Z,100.00
2022-08-31T09:34:37.643Z,100.00
2022-08-31T09:37:16.553Z,100.00
2022-08-31T09:39:47.578Z,100.00
2022-08-31T09:42:29.019Z,100.00
2022-08-31T09:45:00.854Z,100.00
2022-08-31T09:47:48.568Z,100.00
2022-08-31T09:50:31.627Z,100.00
2022-08-31T09:53:38.899Z,100.00
2022-08-31T09:56:19.777Z,100.00
2022-08-31T09:58:50.932Z,100.00
2022-08-31T10:01:29.858Z,100.00
2022-08-31T10:04:18.795Z,100.00
2022-08-31T10:06:55.299Z,100.00
2022-08-31T10:09:33.290Z,100.00
2022-08-31T10:12:05.678Z,100.00
2022-08-31T10:14:41.237Z,100.00
2022-08-31T10:17:15.330Z,100.00
2022-08-31T10:19:53.304Z,100.00
2022-08-31T10:22:33.385Z,100.00
2022-08-31T10:25:12.061Z,100.00
2022-08-31T10:27:45.137Z,100.00
2022-08-31T10:30:23.885Z,100.00
2022-08-31T10:32:58.890Z,100.00
2022-08-31T10:35:36.323Z,100.00
2022-08-31T10:38:20.262Z,100.00
2022-08-31T10:40:53.992Z,100.00
2022-08-31T10:43:26.788Z,100.00
2022-08-31T10:46:00.585Z,100.00
2022-08-31T10:48:30.303Z,100.00
2022-08-31T10:51:09.190Z,100.00
2022-08-31T10:53:57.770Z,100.00
2022-08-31T10:56:39.834Z,100.00
2022-08-31T10:59:18.683Z,100.00
2022-08-31T11:01:58.118Z,100.00
2022-08-31T11:04:51.880Z,100.00
2022-08-31T11:07:36.898Z,100.00
2022-08-31T11:10:22.232Z,100.00
2022-08-31T11:12:57.861Z,100.00
2022-08-31T11:15:58.904Z,100.00
2022-08-31T11:19:09.321Z,100.00
2022-08-31T11:22:06.298Z,100.00
2022-08-31T11:24:49.223Z,100.00
2022-08-31T11:27:24.640Z,100.00
2022-08-31T11:29:58.210Z,100.00
2022-08-31T11:32:34.221Z,100.00
2022-08-31T11:35:10.154Z,100.00
2022-08-31T11:37:59.705Z,100.00
2022-08-31T11:41:10.883Z,100.00
2022-08-31T11:43:48.993Z,100.00
2022-08-31T11:46:42.961Z,100.00
2022-08-31T11:49:34.591Z,100.00
2022-08-31T11:52:11.120Z,100.00
2022-08-31T11:55:07.941Z,100.00
2022-08-31T11:58:21.057Z,100.00
2022-08-31T12:00:57.447Z,100.00
2022-08-31T12:03:52.403Z,100.00
2022-08-31T12:07:09.310Z,100.00
2022-08-31T12:09:54.290Z,100.00
2022-08-31T12:12:34.526Z,100.00
2022-08-31T12:15:15.672Z,100.00
2022-08-31T12:17:56.991Z,100.00
2022-08-31T12:20:32.488Z,100.00
2022-08-31T12:23:37.694Z,100.00
2022-08-31T12:26:48.473Z,100.00
2022-08-31T12:29:26.716Z,100.00
2022-08-31T12:32:10.920Z,100.00
2022-08-31T12:34:46.787Z,100.00
2022-08-31T12:37:20.595Z,100.00
2022-08-31T12:39:48.711Z,100.00
2022-08-31T12:42:16.657Z,100.00
2022-08-31T12:44:52.434Z,100.00
2022-08-31T12:47:30.620Z,100.00
2022-08-31T12:50:13.955Z,100.00
2022-08-31T12:53:24.398Z,100.00
2022-08-31T12:56:00.442Z,100.00
2022-08-31T12:58:51.407Z,100.00
2022-08-31T13:01:24.097Z,100.00
2022-08-31T13:03:57.886Z,100.00
2022-08-31T13:06:27.970Z,100.00
2022-08-31T13:08:56.366Z,100.00
2022-08-31T13:11:35.116Z,100.00
2022-08-31T13:14:18.347Z,100.00
2022-08-31T13:16:49.903Z,100.00
2022-08-31T13:19:25.748Z,100.00
2022-08-31T13:21:58.136Z,100.00
2022-08-31T13:24:32.679Z,100.00
2022-08-31T13:27:05.870Z,100.00
2022-08-31T13:29:41.070Z,100.00
2022-08-31T13:32:10.659Z,100.00
2022-08-31T13:34:42.488Z,100.00
2022-08-31T13:37:15.593Z,100.00
2022-08-31T13:39:46.134Z,100.00
2022-08-31T13:42:28.747Z,100.00
2022-08-31T13:45:00.526Z,100.00
2022-08-31T13:47:48.834Z,100.00
2022-08-31T13:50:25.919Z,100.00
2022-08-31T13:53:22.998Z,100.00
2022-08-31T13:55:46.694Z,90.53
2022-08-31T13:58:27.270Z,90.85
2022-08-31T14:01:19.088Z,89.00
2022-08-31T14:03:57.308Z,88.87
2022-08-31T14:06:28.692Z,82.65
2022-08-31T14:09:10.093Z,77.01
2022-08-31T14:11:42.517Z,80.60
2022-08-31T14:14:13.132Z,73.45
2022-08-31T14:16:51.908Z,75.51
2022-08-31T14:19:32.726Z,74.88
2022-08-31T14:22:29.488Z,72.96
2022-08-31T14:25:00.367Z,71.82
2022-08-31T14:27:30.327Z,74.63
2022-08-31T14:29:58.401Z,69.50
2022-08-31T14:32:29.023Z,71.40
2022-08-31T14:34:59.073Z,71.40
2022-08-31T14:37:30.182Z,69.18
2022-08-31T14:40:07.012Z,70.28
2022-08-31T14:42:38.835Z,70.26
2022-08-31T14:45:09.717Z,75.61
2022-08-31T14:47:43.781Z,76.00
2022-08-31T14:50:16.425Z,74.62
2022-08-31T14:52:49.525Z,73.47
2022-08-31T14:55:20.209Z,71.60
2022-08-31T14:57:58.209Z,72.53
2022-08-31T15:00:29.186Z,71.58
2022-08-31T15:02:58.233Z,67.49
2022-08-31T15:05:27.762Z,71.12
2022-08-31T15:07:56.906Z,74.67
2022-08-31T15:10:26.425Z,75.10
2022-08-31T15:12:55.831Z,79.39
2022-08-31T15:15:25.638Z,80.00
2022-08-31T15:17:56.201Z,82.34
2022-08-31T15:20:25.356Z,78.59
2022-08-31T15:22:55.598Z,83.80
2022-08-31T15:25:26.361Z,80.66
2022-08-31T15:27:54.498Z,82.86
2022-08-31T15:30:24.573Z,74.94
2022-08-31T15:32:55.135Z,79.13
2022-08-31T15:35:26.433Z,78.42
2022-08-31T15:38:02.346Z,76.87
2022-08-31T15:40:38.777Z,75.43
2022-08-31T15:43:12.787Z,75.31
2022-08-31T15:45:41.942Z,73.58
2022-08-31T15:48:28.461Z,77.26
2022-08-31T15:51:00.432Z,79.05
2022-08-31T15:53:32.359Z,78.92
2022-08-31T15:56:06.789Z,79.49
2022-08-31T15:58:39.340Z,76.39
2022-08-31T16:01:12.847Z,77.22
2022-08-31T16:03:42.101Z,78.07
2022-08-31T16:06:11.741Z,77.26
2022-08-31T16:08:42.559Z,77.69
2022-08-31T16:11:12.942Z,74.83
2022-08-31T16:13:49.130Z,74.79
2022-08-31T16:16:18.622Z,74.51
2022-08-31T16:18:47.935Z,75.72
2022-08-31T16:21:20.235Z,77.77
2022-08-31T16:23:51.804Z,77.71
2022-08-31T16:26:21.755Z,77.09
2022-08-31T16:28:50.134Z,76.91
2022-08-31T16:31:19.032Z,77.54
2022-08-31T16:33:48.115Z,78.15
2022-08-31T16:36:18.455Z,79.64
2022-08-31T16:38:48.008Z,79.00
2022-08-31T16:41:19.294Z,76.98
2022-08-31T16:44:03.436Z,78.45
2022-08-31T16:46:40.935Z,76.54
2022-08-31T16:49:27.010Z,78.76
2022-08-31T16:51:55.564Z,80.58
2022-08-31T16:54:25.700Z,82.44
2022-08-31T16:56:57.670Z,80.21
2022-08-31T16:59:29.714Z,80.42
2022-08-31T17:01:58.238Z,77.89
2022-08-31T17:04:51.083Z,74.11
2022-08-31T17:07:18.950Z,75.38
2022-08-31T17:09:47.798Z,76.39
2022-08-31T17:12:21.814Z,77.24
2022-08-31T17:14:52.776Z,78.50
2022-08-31T17:17:22.561Z,80.28
2022-08-31T17:19:51.999Z,79.76
2022-08-31T17:22:26.945Z,79.15
2022-08-31T17:24:57.672Z,80.15
2022-08-31T17:27:27.861Z,82.23
2022-08-31T17:29:59.793Z,81.85
2022-08-31T17:32:29.184Z,82.62
2022-08-31T17:34:57.262Z,83.01
2022-08-31T17:37:27.775Z,83.01
2022-08-31T17:39:57.410Z,83.38
2022-08-31T17:42:28.181Z,81.25
2022-08-31T17:44:58.884Z,79.14
2022-08-31T17:47:27.357Z,81.61
2022-08-31T17:49:55.439Z,80.44
2022-08-31T17:52:24.484Z,83.58
2022-08-31T17:54:52.643Z,80.88
2022-08-31T17:57:24.900Z,81.29
2022-08-31T17:59:56.079Z,82.72
2022-08-31T18:02:27.548Z,80.87
2022-08-31T18:04:56.056Z,81.57
2022-08-31T18:07:24.918Z,81.90
2022-08-31T18:09:53.718Z,82.61
2022-08-31T18:12:22.864Z,82.06
2022-08-31T18:14:51.576Z,81.29
2022-08-31T18:17:23.421Z,80.82
2022-08-31T18:19:51.482Z,81.88
2022-08-31T18:22:19.959Z,82.16
2022-08-31T18:24:48.163Z,81.48
2022-08-31T18:27:16.167Z,82.17
2022-08-31T18:29:45.620Z,82.49
2022-08-31T18:32:17.362Z,81.50
2022-08-31T18:34:47.458Z,82.24
2022-08-31T18:37:22.351Z,82.52
2022-08-31T18:40:08.493Z,81.57
2022-08-31T18:43:06.108Z,80.50
2022-08-31T18:45:39.420Z,79.52
2022-08-31T18:48:24.461Z,80.35
2022-08-31T18:50:59.209Z,81.59
2022-08-31T18:53:30.266Z,80.53
2022-08-31T18:56:00.618Z,80.77
2022-08-31T18:58:29.921Z,80.01
2022-08-31T19:00:59.449Z,79.71
2022-08-31T19:03:28.451Z,79.67
2022-08-31T19:05:58.341Z,79.76
2022-08-31T19:08:26.752Z,79.98
2022-08-31T19:10:58.085Z,80.13
2022-08-31T19:13:31.160Z,80.29
2022-08-31T19:16:03.519Z,80.28
2022-08-31T19:18:36.236Z,79.33
2022-08-31T19:21:19.214Z,79.24
2022-08-31T19:23:47.719Z,78.85
2022-08-31T19:26:21.028Z,79.02
2022-08-31T19:28:50.258Z,80.03
2022-08-31T19:31:20.857Z,80.72
2022-08-31T19:33:56.083Z,82.29
2022-08-31T19:36:27.262Z,82.59
2022-08-31T19:38:57.467Z,82.23
2022-08-31T19:41:27.443Z,83.10
2022-08-31T19:44:07.814Z,83.36
2022-08-31T19:46:37.590Z,85.50
2022-08-31T19:49:09.484Z,83.31
2022-08-31T19:51:40.184Z,84.08
2022-08-31T19:54:11.674Z,82.45
2022-08-31T19:56:41.298Z,82.39
2022-08-31T19:59:09.794Z,82.71
2022-08-31T20:01:40.647Z,82.18
2022-08-31T20:04:14.395Z,82.21
2022-08-31T20:06:46.427Z,81.32
2022-08-31T20:09:14.821Z,82.33
2022-08-31T20:11:47.415Z,82.15
2022-08-31T20:14:18.660Z,82.49
2022-08-31T20:16:46.890Z,83.24
2022-08-31T20:19:20.746Z,83.65
2022-08-31T20:21:52.860Z,84.05
2022-08-31T20:24:22.384Z,82.69
2022-08-31T20:26:51.995Z,83.79
2022-08-31T20:29:21.613Z,83.78
2022-08-31T20:31:51.788Z,83.87
2022-08-31T20:34:22.811Z,83.05
2022-08-31T20:36:58.455Z,81.79
2022-08-31T20:39:30.338Z,82.16
2022-08-31T20:41:59.016Z,82.58
2022-08-31T20:44:29.358Z,82.37
2022-08-31T20:47:16.870Z,82.81
2022-08-31T20:49:51.022Z,83.32
2022-08-31T20:52:20.841Z,82.74
2022-08-31T20:54:52.864Z,81.09
2022-08-31T20:57:30.122Z,80.30
2022-08-31T20:59:58.461Z,83.11
2022-08-31T21:02:26.393Z,83.09
2022-08-31T21:04:54.699Z,83.37
2022-08-31T21:07:24.563Z,82.12
2022-08-31T21:09:52.738Z,83.06
2022-08-31T21:12:21.139Z,83.86
2022-08-31T21:14:49.659Z,83.16
2022-08-31T21:17:18.869Z,83.22
2022-08-31T21:19:46.840Z,81.75
2022-08-31T21:22:17.218Z,82.99
2022-08-31T21:24:47.538Z,82.37
2022-08-31T21:27:18.563Z,84.16
2022-08-31T21:29:47.240Z,83.41
2022-08-31T21:32:16.019Z,82.47
2022-08-31T21:34:44.311Z,83.62
2022-08-31T21:37:12.517Z,82.85
2022-08-31T21:39:41.788Z,83.67
2022-08-31T21:42:11.231Z,83.70
2022-08-31T21:44:39.506Z,84.42
2022-08-31T21:47:09.874Z,84.17
2022-08-31T21:49:38.032Z,83.26
2022-08-31T21:52:05.929Z,83.75
2022-08-31T21:54:33.970Z,82.93
2022-08-31T21:57:03.765Z,82.16
2022-08-31T21:59:36.033Z,82.10
2022-08-31T22:02:09.042Z,82.62
2022-08-31T22:04:40.548Z,82.82
2022-08-31T22:07:09.543Z,82.22
2022-08-31T22:09:38.370Z,83.44
2022-08-31T22:12:08.250Z,83.73
2022-08-31T22:14:39.998Z,84.99
2022-08-31T22:17:09.194Z,85.06
2022-08-31T22:19:39.875Z,85.88
2022-08-31T22:22:11.737Z,84.90
2022-08-31T22:24:42.194Z,84.63
2022-08-31T22:27:11.728Z,85.54
2022-08-31T22:29:41.965Z,86.71
2022-08-31T22:32:12.727Z,85.50
2022-08-31T22:34:43.052Z,86.72
2022-08-31T22:37:13.809Z,85.67
2022-08-31T22:39:42.718Z,86.64
2022-08-31T22:42:11.952Z,85.65
2022-08-31T22:44:43.178Z,86.41
2022-08-31T22:47:11.117Z,86.68
2022-08-31T22:49:39.323Z,87.34
2022-08-31T22:52:07.388Z,86.89
2022-08-31T22:54:36.449Z,88.65
2022-08-31T22:57:04.394Z,91.27
2022-08-31T22:59:32.264Z,88.68
2022-08-31T23:02:03.722Z,88.06
2022-08-31T23:04:34.322Z,87.49
2022-08-31T23:07:04.187Z,87.90
2022-08-31T23:09:34.208Z,87.78
2022-08-31T23:12:05.585Z,88.17
2022-08-31T23:14:33.579Z,88.11
2022-08-31T23:17:08.134Z,85.42
2022-08-31T23:19:38.878Z,84.62
2022-08-31T23:22:10.138Z,85.00
2022-08-31T23:24:43.831Z,85.70
2022-08-31T23:27:12.762Z,87.46
2022-08-31T23:29:45.606Z,88.87
2022-08-31T23:32:18.020Z,88.73
2022-08-31T23:34:49.265Z,88.90
2022-08-31T23:37:18.507Z,88.64
2022-08-31T23:39:47.626Z,88.40
2022-08-31T23:42:17.104Z,87.21
2022-08-31T23:44:46.934Z,86.89
2022-08-31T23:47:20.201Z,88.37
2022-08-31T23:49:49.694Z,90.02
2022-08-31T23:52:21.589Z,91.57
2022-08-31T23:54:52.202Z,90.40
2022-08-31T23:57:32.247Z,88.47
